sensor_id;sensor_type;location;lat;lon;timestamp;P1;durP1;ratioP1;P2;durP2;ratioP2
58071;SDS011;60383;46.626;18.866;2023-06-26T00:01:30;5.32;;;3.00;;
58071;SDS011;60383;46.626;18.866;2023-06-26T00:03:59;4.03;;;3.05;;
58071;SDS011;60383;46.626;18.866;2023-06-26T00:06:25;4.32;;;3.17;;
58071;SDS011;60383;46.626;18.866;2023-06-26T00:08:51;7.03;;;3.67;;
58071;SDS011;60383;46.626;18.866;2023-06-26T00:11:18;5.13;;;3.60;;
58071;SDS011;60383;46.626;18.866;2023-06-26T00:13:44;4.22;;;3.50;;
58071;SDS011;60383;46.626;18.866;2023-06-26T00:16:10;6.75;;;3.60;;
58071;SDS011;60383;46.626;18.866;2023-06-26T00:18:35;4.45;;;3.35;;
58071;SDS011;60383;46.626;18.866;2023-06-26T00:21:01;4.68;;;3.40;;
58071;SDS011;60383;46.626;18.866;2023-06-26T00:23:26;4.78;;;3.55;;
58071;SDS011;60383;46.626;18.866;2023-06-26T00:25:52;3.47;;;2.90;;
58071;SDS011;60383;46.626;18.866;2023-06-26T00:28:18;4.32;;;3.33;;
58071;SDS011;60383;46.626;18.866;2023-06-26T00:30:44;4.72;;;3.33;;
58071;SDS011;60383;46.626;18.866;2023-06-26T00:33:09;4.32;;;3.33;;
58071;SDS011;60383;46.626;18.866;2023-06-26T00:35:35;5.30;;;4.07;;
58071;SDS011;60383;46.626;18.866;2023-06-26T00:38:00;5.03;;;3.30;;
58071;SDS011;60383;46.626;18.866;2023-06-26T00:40:26;5.32;;;3.55;;
58071;SDS011;60383;46.626;18.866;2023-06-26T00:42:52;5.25;;;3.72;;
58071;SDS011;60383;46.626;18.866;2023-06-26T00:45:18;3.70;;;3.28;;
58071;SDS011;60383;46.626;18.866;2023-06-26T00:47:44;5.18;;;3.80;;
58071;SDS011;60383;46.626;18.866;2023-06-26T00:50:09;5.70;;;3.80;;
58071;SDS011;60383;46.626;18.866;2023-06-26T00:52:36;5.10;;;3.58;;
58071;SDS011;60383;46.626;18.866;2023-06-26T00:55:02;5.00;;;3.55;;
58071;SDS011;60383;46.626;18.866;2023-06-26T00:57:27;4.40;;;3.30;;
58071;SDS011;60383;46.626;18.866;2023-06-26T00:59:53;4.95;;;3.53;;
58071;SDS011;60383;46.626;18.866;2023-06-26T01:02:18;5.78;;;3.50;;
58071;SDS011;60383;46.626;18.866;2023-06-26T01:04:54;5.93;;;3.70;;
58071;SDS011;60383;46.626;18.866;2023-06-26T01:07:19;4.38;;;3.08;;
58071;SDS011;60383;46.626;18.866;2023-06-26T01:09:46;7.63;;;3.97;;
58071;SDS011;60383;46.626;18.866;2023-06-26T01:12:13;4.93;;;3.53;;
58071;SDS011;60383;46.626;18.866;2023-06-26T01:14:39;5.43;;;3.53;;
58071;SDS011;60383;46.626;18.866;2023-06-26T01:17:04;5.35;;;3.85;;
58071;SDS011;60383;46.626;18.866;2023-06-26T01:19:31;5.20;;;3.13;;
58071;SDS011;60383;46.626;18.866;2023-06-26T01:24:50;5.70;;;3.92;;
58071;SDS011;60383;46.626;18.866;2023-06-26T01:27:26;6.53;;;4.00;;
58071;SDS011;60383;46.626;18.866;2023-06-26T01:29:54;5.80;;;3.97;;
58071;SDS011;60383;46.626;18.866;2023-06-26T01:32:21;6.45;;;3.75;;
58071;SDS011;60383;46.626;18.866;2023-06-26T01:34:48;4.80;;;3.47;;
58071;SDS011;60383;46.626;18.866;2023-06-26T01:37:14;5.53;;;4.00;;
58071;SDS011;60383;46.626;18.866;2023-06-26T01:39:39;5.63;;;3.65;;
58071;SDS011;60383;46.626;18.866;2023-06-26T01:42:05;5.97;;;4.05;;
58071;SDS011;60383;46.626;18.866;2023-06-26T01:44:32;4.45;;;3.38;;
58071;SDS011;60383;46.626;18.866;2023-06-26T01:47:05;4.80;;;3.47;;
58071;SDS011;60383;46.626;18.866;2023-06-26T02:00:13;5.00;;;3.67;;
58071;SDS011;60383;46.626;18.866;2023-06-26T02:02:43;5.80;;;3.75;;
58071;SDS011;60383;46.626;18.866;2023-06-26T02:05:09;6.00;;;3.42;;
58071;SDS011;60383;46.626;18.866;2023-06-26T02:07:35;6.18;;;3.90;;
58071;SDS011;60383;46.626;18.866;2023-06-26T02:10:01;5.82;;;3.42;;
58071;SDS011;60383;46.626;18.866;2023-06-26T02:12:27;5.60;;;3.70;;
58071;SDS011;60383;46.626;18.866;2023-06-26T02:14:52;5.75;;;3.80;;
58071;SDS011;60383;46.626;18.866;2023-06-26T02:17:18;6.18;;;3.65;;
58071;SDS011;60383;46.626;18.866;2023-06-26T02:19:43;7.30;;;3.95;;
58071;SDS011;60383;46.626;18.866;2023-06-26T02:22:13;7.80;;;3.97;;
58071;SDS011;60383;46.626;18.866;2023-06-26T02:24:39;6.35;;;4.00;;
58071;SDS011;60383;46.626;18.866;2023-06-26T02:27:05;4.30;;;3.47;;
58071;SDS011;60383;46.626;18.866;2023-06-26T02:29:31;5.43;;;4.13;;
58071;SDS011;60383;46.626;18.866;2023-06-26T02:31:56;7.38;;;4.00;;
58071;SDS011;60383;46.626;18.866;2023-06-26T02:34:22;5.60;;;3.53;;
58071;SDS011;60383;46.626;18.866;2023-06-26T02:36:47;5.35;;;3.97;;
58071;SDS011;60383;46.626;18.866;2023-06-26T02:39:13;6.05;;;3.78;;
58071;SDS011;60383;46.626;18.866;2023-06-26T02:41:39;5.82;;;4.25;;
58071;SDS011;60383;46.626;18.866;2023-06-26T02:44:05;5.47;;;3.75;;
58071;SDS011;60383;46.626;18.866;2023-06-26T02:46:31;5.45;;;3.65;;
58071;SDS011;60383;46.626;18.866;2023-06-26T02:48:56;6.35;;;4.13;;
58071;SDS011;60383;46.626;18.866;2023-06-26T02:51:22;4.75;;;3.50;;
58071;SDS011;60383;46.626;18.866;2023-06-26T02:53:47;5.15;;;3.70;;
58071;SDS011;60383;46.626;18.866;2023-06-26T02:56:13;5.90;;;3.95;;
58071;SDS011;60383;46.626;18.866;2023-06-26T02:58:38;6.07;;;3.53;;
58071;SDS011;60383;46.626;18.866;2023-06-26T03:01:04;5.63;;;3.80;;
58071;SDS011;60383;46.626;18.866;2023-06-26T03:03:29;4.93;;;3.78;;
58071;SDS011;60383;46.626;18.866;2023-06-26T03:05:54;6.15;;;3.97;;
58071;SDS011;60383;46.626;18.866;2023-06-26T03:08:20;7.35;;;4.20;;
58071;SDS011;60383;46.626;18.866;2023-06-26T03:10:45;5.25;;;3.97;;
58071;SDS011;60383;46.626;18.866;2023-06-26T03:13:11;5.95;;;4.25;;
58071;SDS011;60383;46.626;18.866;2023-06-26T03:15:36;5.47;;;3.72;;
58071;SDS011;60383;46.626;18.866;2023-06-26T03:18:02;6.15;;;3.88;;
58071;SDS011;60383;46.626;18.866;2023-06-26T03:20:27;6.00;;;4.05;;
58071;SDS011;60383;46.626;18.866;2023-06-26T03:22:53;7.30;;;4.25;;
58071;SDS011;60383;46.626;18.866;2023-06-26T03:25:18;9.25;;;5.75;;
58071;SDS011;60383;46.626;18.866;2023-06-26T03:27:44;8.77;;;4.78;;
58071;SDS011;60383;46.626;18.866;2023-06-26T03:30:10;6.85;;;4.22;;
58071;SDS011;60383;46.626;18.866;2023-06-26T03:32:36;8.35;;;4.35;;
58071;SDS011;60383;46.626;18.866;2023-06-26T03:35:01;6.07;;;4.18;;
58071;SDS011;60383;46.626;18.866;2023-06-26T03:37:28;6.05;;;4.93;;
58071;SDS011;60383;46.626;18.866;2023-06-26T03:39:54;6.13;;;4.05;;
58071;SDS011;60383;46.626;18.866;2023-06-26T03:42:19;6.05;;;4.50;;
58071;SDS011;60383;46.626;18.866;2023-06-26T03:44:44;4.93;;;3.42;;
58071;SDS011;60383;46.626;18.866;2023-06-26T03:47:10;8.07;;;4.53;;
58071;SDS011;60383;46.626;18.866;2023-06-26T03:49:35;6.28;;;4.03;;
58071;SDS011;60383;46.626;18.866;2023-06-26T03:52:01;7.80;;;4.85;;
58071;SDS011;60383;46.626;18.866;2023-06-26T03:54:26;5.07;;;3.58;;
58071;SDS011;60383;46.626;18.866;2023-06-26T03:56:52;6.90;;;4.30;;
58071;SDS011;60383;46.626;18.866;2023-06-26T03:59:17;6.40;;;4.47;;
58071;SDS011;60383;46.626;18.866;2023-06-26T04:01:43;5.07;;;3.47;;
58071;SDS011;60383;46.626;18.866;2023-06-26T04:04:08;7.20;;;4.13;;
58071;SDS011;60383;46.626;18.866;2023-06-26T04:06:34;6.20;;;4.20;;
58071;SDS011;60383;46.626;18.866;2023-06-26T04:08:59;6.82;;;3.85;;
58071;SDS011;60383;46.626;18.866;2023-06-26T04:11:25;5.35;;;4.00;;
58071;SDS011;60383;46.626;18.866;2023-06-26T04:13:51;5.90;;;3.42;;
58071;SDS011;60383;46.626;18.866;2023-06-26T04:16:17;4.95;;;3.58;;
58071;SDS011;60383;46.626;18.866;2023-06-26T04:18:42;4.88;;;3.53;;
58071;SDS011;60383;46.626;18.866;2023-06-26T04:21:11;6.30;;;4.40;;
58071;SDS011;60383;46.626;18.866;2023-06-26T04:23:38;5.32;;;3.53;;
58071;SDS011;60383;46.626;18.866;2023-06-26T04:26:05;7.10;;;4.30;;
58071;SDS011;60383;46.626;18.866;2023-06-26T04:28:32;5.43;;;3.63;;
58071;SDS011;60383;46.626;18.866;2023-06-26T04:31:01;6.13;;;4.20;;
58071;SDS011;60383;46.626;18.866;2023-06-26T04:33:28;5.82;;;4.32;;
58071;SDS011;60383;46.626;18.866;2023-06-26T04:35:54;4.85;;;3.70;;
58071;SDS011;60383;46.626;18.866;2023-06-26T04:38:20;5.05;;;3.60;;
58071;SDS011;60383;46.626;18.866;2023-06-26T04:40:46;5.07;;;3.55;;
58071;SDS011;60383;46.626;18.866;2023-06-26T04:43:12;5.82;;;4.00;;
58071;SDS011;60383;46.626;18.866;2023-06-26T04:45:38;5.25;;;4.15;;
58071;SDS011;60383;46.626;18.866;2023-06-26T04:48:03;5.90;;;4.03;;
58071;SDS011;60383;46.626;18.866;2023-06-26T04:50:30;5.15;;;4.15;;
58071;SDS011;60383;46.626;18.866;2023-06-26T04:52:56;4.93;;;3.47;;
58071;SDS011;60383;46.626;18.866;2023-06-26T04:55:23;5.68;;;3.65;;
58071;SDS011;60383;46.626;18.866;2023-06-26T04:57:49;5.78;;;3.95;;
58071;SDS011;60383;46.626;18.866;2023-06-26T05:00:15;5.18;;;3.67;;
58071;SDS011;60383;46.626;18.866;2023-06-26T05:02:41;5.95;;;4.15;;
58071;SDS011;60383;46.626;18.866;2023-06-26T05:05:07;4.85;;;3.75;;
58071;SDS011;60383;46.626;18.866;2023-06-26T05:07:32;5.80;;;4.00;;
58071;SDS011;60383;46.626;18.866;2023-06-26T05:09:58;5.53;;;4.00;;
58071;SDS011;60383;46.626;18.866;2023-06-26T05:12:23;4.50;;;3.42;;
58071;SDS011;60383;46.626;18.866;2023-06-26T05:14:49;5.07;;;3.45;;
58071;SDS011;60383;46.626;18.866;2023-06-26T05:17:14;6.10;;;4.00;;
58071;SDS011;60383;46.626;18.866;2023-06-26T05:19:40;6.10;;;3.97;;
58071;SDS011;60383;46.626;18.866;2023-06-26T05:22:06;5.70;;;3.25;;
58071;SDS011;60383;46.626;18.866;2023-06-26T05:24:33;5.93;;;3.78;;
58071;SDS011;60383;46.626;18.866;2023-06-26T05:29:31;4.10;;;3.33;;
58071;SDS011;60383;46.626;18.866;2023-06-26T05:31:58;5.68;;;3.45;;
58071;SDS011;60383;46.626;18.866;2023-06-26T05:34:24;4.95;;;3.35;;
58071;SDS011;60383;46.626;18.866;2023-06-26T05:36:53;4.45;;;3.30;;
58071;SDS011;60383;46.626;18.866;2023-06-26T05:39:23;5.20;;;3.53;;
58071;SDS011;60383;46.626;18.866;2023-06-26T05:41:49;5.40;;;4.00;;
58071;SDS011;60383;46.626;18.866;2023-06-26T05:44:15;4.75;;;3.55;;
58071;SDS011;60383;46.626;18.866;2023-06-26T05:46:41;5.18;;;3.42;;
58071;SDS011;60383;46.626;18.866;2023-06-26T05:49:07;8.27;;;3.80;;
58071;SDS011;60383;46.626;18.866;2023-06-26T05:51:32;5.30;;;3.80;;
58071;SDS011;60383;46.626;18.866;2023-06-26T05:53:58;4.53;;;3.70;;
58071;SDS011;60383;46.626;18.866;2023-06-26T05:56:24;5.50;;;4.00;;
58071;SDS011;60383;46.626;18.866;2023-06-26T05:58:49;6.40;;;3.80;;
58071;SDS011;60383;46.626;18.866;2023-06-26T06:01:16;6.15;;;4.00;;
58071;SDS011;60383;46.626;18.866;2023-06-26T06:03:41;4.82;;;3.83;;
58071;SDS011;60383;46.626;18.866;2023-06-26T06:06:07;5.55;;;3.42;;
58071;SDS011;60383;46.626;18.866;2023-06-26T06:08:32;5.22;;;3.80;;
58071;SDS011;60383;46.626;18.866;2023-06-26T06:10:59;4.50;;;3.67;;
58071;SDS011;60383;46.626;18.866;2023-06-26T06:13:25;5.03;;;3.80;;
58071;SDS011;60383;46.626;18.866;2023-06-26T06:15:50;6.03;;;4.45;;
58071;SDS011;60383;46.626;18.866;2023-06-26T06:18:16;6.38;;;4.15;;
58071;SDS011;60383;46.626;18.866;2023-06-26T06:20:41;5.63;;;4.00;;
58071;SDS011;60383;46.626;18.866;2023-06-26T06:23:07;4.55;;;3.58;;
58071;SDS011;60383;46.626;18.866;2023-06-26T06:25:32;6.13;;;3.72;;
58071;SDS011;60383;46.626;18.866;2023-06-26T06:27:58;6.20;;;3.95;;
58071;SDS011;60383;46.626;18.866;2023-06-26T06:30:23;5.50;;;4.00;;
58071;SDS011;60383;46.626;18.866;2023-06-26T06:32:49;6.55;;;3.88;;
58071;SDS011;60383;46.626;18.866;2023-06-26T06:35:17;6.00;;;4.15;;
58071;SDS011;60383;46.626;18.866;2023-06-26T06:37:43;5.50;;;4.07;;
58071;SDS011;60383;46.626;18.866;2023-06-26T06:40:09;4.55;;;3.70;;
58071;SDS011;60383;46.626;18.866;2023-06-26T06:42:35;4.45;;;3.42;;
58071;SDS011;60383;46.626;18.866;2023-06-26T06:45:02;4.93;;;3.55;;
58071;SDS011;60383;46.626;18.866;2023-06-26T06:47:28;6.03;;;3.97;;
58071;SDS011;60383;46.626;18.866;2023-06-26T06:49:53;4.78;;;3.67;;
58071;SDS011;60383;46.626;18.866;2023-06-26T06:52:19;5.75;;;3.83;;
58071;SDS011;60383;46.626;18.866;2023-06-26T06:54:54;5.38;;;3.42;;
58071;SDS011;60383;46.626;18.866;2023-06-26T06:57:21;5.82;;;3.67;;
58071;SDS011;60383;46.626;18.866;2023-06-26T06:59:46;4.78;;;3.67;;
58071;SDS011;60383;46.626;18.866;2023-06-26T07:02:13;4.25;;;3.50;;
58071;SDS011;60383;46.626;18.866;2023-06-26T07:04:40;4.80;;;3.70;;
58071;SDS011;60383;46.626;18.866;2023-06-26T07:07:06;4.78;;;3.80;;
58071;SDS011;60383;46.626;18.866;2023-06-26T07:09:31;5.18;;;3.63;;
58071;SDS011;60383;46.626;18.866;2023-06-26T07:11:56;4.93;;;3.85;;
58071;SDS011;60383;46.626;18.866;2023-06-26T07:14:22;4.53;;;3.53;;
58071;SDS011;60383;46.626;18.866;2023-06-26T07:16:48;4.60;;;3.60;;
58071;SDS011;60383;46.626;18.866;2023-06-26T07:19:14;5.38;;;3.72;;
58071;SDS011;60383;46.626;18.866;2023-06-26T07:21:39;5.13;;;3.78;;
58071;SDS011;60383;46.626;18.866;2023-06-26T07:24:06;5.35;;;3.90;;
58071;SDS011;60383;46.626;18.866;2023-06-26T07:26:32;5.35;;;3.50;;
58071;SDS011;60383;46.626;18.866;2023-06-26T07:28:57;4.80;;;3.50;;
58071;SDS011;60383;46.626;18.866;2023-06-26T07:31:22;4.57;;;3.80;;
58071;SDS011;60383;46.626;18.866;2023-06-26T07:33:48;5.65;;;3.78;;
58071;SDS011;60383;46.626;18.866;2023-06-26T07:36:13;4.90;;;3.45;;
58071;SDS011;60383;46.626;18.866;2023-06-26T07:38:39;4.72;;;3.47;;
58071;SDS011;60383;46.626;18.866;2023-06-26T07:41:04;4.32;;;3.45;;
58071;SDS011;60383;46.626;18.866;2023-06-26T07:43:30;4.95;;;3.58;;
58071;SDS011;60383;46.626;18.866;2023-06-26T07:45:56;5.03;;;3.40;;
58071;SDS011;60383;46.626;18.866;2023-06-26T07:48:23;3.80;;;3.40;;
58071;SDS011;60383;46.626;18.866;2023-06-26T07:50:49;4.38;;;3.45;;
58071;SDS011;60383;46.626;18.866;2023-06-26T07:53:15;4.45;;;3.35;;
58071;SDS011;60383;46.626;18.866;2023-06-26T07:55:40;4.43;;;3.40;;
58071;SDS011;60383;46.626;18.866;2023-06-26T07:58:07;4.50;;;3.28;;
58071;SDS011;60383;46.626;18.866;2023-06-26T08:00:32;4.53;;;3.67;;
58071;SDS011;60383;46.626;18.866;2023-06-26T08:02:58;4.18;;;3.10;;
58071;SDS011;60383;46.626;18.866;2023-06-26T08:05:23;4.28;;;3.30;;
58071;SDS011;60383;46.626;18.866;2023-06-26T08:07:49;6.00;;;3.90;;
58071;SDS011;60383;46.626;18.866;2023-06-26T08:10:14;4.93;;;3.38;;
58071;SDS011;60383;46.626;18.866;2023-06-26T08:12:40;4.15;;;3.45;;
58071;SDS011;60383;46.626;18.866;2023-06-26T08:15:08;3.58;;;2.90;;
58071;SDS011;60383;46.626;18.866;2023-06-26T08:17:34;4.28;;;3.50;;
58071;SDS011;60383;46.626;18.866;2023-06-26T08:20:01;4.18;;;3.28;;
58071;SDS011;60383;46.626;18.866;2023-06-26T08:22:27;3.85;;;3.38;;
58071;SDS011;60383;46.626;18.866;2023-06-26T08:24:52;5.20;;;3.15;;
58071;SDS011;60383;46.626;18.866;2023-06-26T08:27:18;4.22;;;3.10;;
58071;SDS011;60383;46.626;18.866;2023-06-26T08:29:43;4.22;;;3.25;;
58071;SDS011;60383;46.626;18.866;2023-06-26T08:32:09;4.05;;;3.25;;
58071;SDS011;60383;46.626;18.866;2023-06-26T08:34:34;5.13;;;2.92;;
58071;SDS011;60383;46.626;18.866;2023-06-26T08:37:00;5.15;;;3.42;;
58071;SDS011;60383;46.626;18.866;2023-06-26T08:39:25;4.10;;;2.70;;
58071;SDS011;60383;46.626;18.866;2023-06-26T08:41:51;5.85;;;2.92;;
58071;SDS011;60383;46.626;18.866;2023-06-26T08:44:16;3.97;;;2.78;;
58071;SDS011;60383;46.626;18.866;2023-06-26T08:46:42;2.78;;;2.47;;
58071;SDS011;60383;46.626;18.866;2023-06-26T08:49:13;3.38;;;2.53;;
58071;SDS011;60383;46.626;18.866;2023-06-26T08:51:45;3.38;;;2.75;;
58071;SDS011;60383;46.626;18.866;2023-06-26T08:54:18;3.72;;;2.80;;
58071;SDS011;60383;46.626;18.866;2023-06-26T08:56:49;3.92;;;2.70;;
58071;SDS011;60383;46.626;18.866;2023-06-26T08:59:15;3.38;;;2.50;;
58071;SDS011;60383;46.626;18.866;2023-06-26T09:01:41;3.58;;;2.75;;
58071;SDS011;60383;46.626;18.866;2023-06-26T09:04:07;3.30;;;2.50;;
58071;SDS011;60383;46.626;18.866;2023-06-26T09:06:33;3.38;;;2.00;;
58071;SDS011;60383;46.626;18.866;2023-06-26T09:08:58;3.85;;;2.50;;
58071;SDS011;60383;46.626;18.866;2023-06-26T09:11:24;4.57;;;2.70;;
58071;SDS011;60383;46.626;18.866;2023-06-26T09:13:49;2.60;;;2.15;;
58071;SDS011;60383;46.626;18.866;2023-06-26T09:16:16;3.35;;;2.58;;
58071;SDS011;60383;46.626;18.866;2023-06-26T09:18:42;2.40;;;2.20;;
58071;SDS011;60383;46.626;18.866;2023-06-26T09:21:08;2.75;;;2.08;;
58071;SDS011;60383;46.626;18.866;2023-06-26T09:23:34;2.58;;;2.10;;
58071;SDS011;60383;46.626;18.866;2023-06-26T09:26:04;3.28;;;2.30;;
58071;SDS011;60383;46.626;18.866;2023-06-26T09:28:31;2.40;;;2.20;;
58071;SDS011;60383;46.626;18.866;2023-06-26T09:31:04;2.15;;;1.90;;
58071;SDS011;60383;46.626;18.866;2023-06-26T09:33:34;2.78;;;2.03;;
58071;SDS011;60383;46.626;18.866;2023-06-26T09:36:07;2.88;;;2.00;;
58071;SDS011;60383;46.626;18.866;2023-06-26T09:38:34;1.95;;;1.65;;
58071;SDS011;60383;46.626;18.866;2023-06-26T09:41:01;3.28;;;2.10;;
58071;SDS011;60383;46.626;18.866;2023-06-26T09:43:27;2.75;;;1.88;;
58071;SDS011;60383;46.626;18.866;2023-06-26T09:45:52;2.22;;;1.73;;
58071;SDS011;60383;46.626;18.866;2023-06-26T09:48:19;2.47;;;1.90;;
58071;SDS011;60383;46.626;18.866;2023-06-26T09:50:45;4.65;;;2.53;;
58071;SDS011;60383;46.626;18.866;2023-06-26T09:53:11;2.30;;;1.85;;
58071;SDS011;60383;46.626;18.866;2023-06-26T09:55:40;3.95;;;2.10;;
58071;SDS011;60383;46.626;18.866;2023-06-26T09:58:09;4.28;;;2.75;;
58071;SDS011;60383;46.626;18.866;2023-06-26T10:00:39;4.30;;;2.35;;
58071;SDS011;60383;46.626;18.866;2023-06-26T10:03:05;2.35;;;1.88;;
58071;SDS011;60383;46.626;18.866;2023-06-26T10:05:31;2.20;;;1.80;;
58071;SDS011;60383;46.626;18.866;2023-06-26T10:07:56;2.08;;;1.88;;
58071;SDS011;60383;46.626;18.866;2023-06-26T10:10:23;3.15;;;2.13;;
58071;SDS011;60383;46.626;18.866;2023-06-26T10:12:51;2.83;;;2.00;;
58071;SDS011;60383;46.626;18.866;2023-06-26T10:15:21;2.22;;;1.90;;
58071;SDS011;60383;46.626;18.866;2023-06-26T10:17:49;2.08;;;1.73;;
58071;SDS011;60383;46.626;18.866;2023-06-26T10:20:15;2.78;;;2.10;;
58071;SDS011;60383;46.626;18.866;2023-06-26T10:22:44;3.00;;;1.90;;
58071;SDS011;60383;46.626;18.866;2023-06-26T10:25:12;2.28;;;1.98;;
58071;SDS011;60383;46.626;18.866;2023-06-26T10:27:57;3.22;;;1.95;;
58071;SDS011;60383;46.626;18.866;2023-06-26T10:30:28;2.35;;;1.92;;
58071;SDS011;60383;46.626;18.866;2023-06-26T10:32:58;2.80;;;2.30;;
58071;SDS011;60383;46.626;18.866;2023-06-26T10:35:25;2.88;;;2.20;;
58071;SDS011;60383;46.626;18.866;2023-06-26T10:37:52;2.70;;;1.90;;
58071;SDS011;60383;46.626;18.866;2023-06-26T10:40:26;2.10;;;1.88;;
58071;SDS011;60383;46.626;18.866;2023-06-26T10:43:06;2.20;;;2.00;;
58071;SDS011;60383;46.626;18.866;2023-06-26T10:45:36;3.42;;;2.25;;
58071;SDS011;60383;46.626;18.866;2023-06-26T10:48:07;3.17;;;2.00;;
58071;SDS011;60383;46.626;18.866;2023-06-26T10:50:33;2.38;;;2.15;;
58071;SDS011;60383;46.626;18.866;2023-06-26T10:58:40;2.33;;;1.83;;
58071;SDS011;60383;46.626;18.866;2023-06-26T11:01:22;2.72;;;2.05;;
58071;SDS011;60383;46.626;18.866;2023-06-26T11:03:50;2.90;;;2.00;;
58071;SDS011;60383;46.626;18.866;2023-06-26T11:06:32;3.05;;;2.10;;
58071;SDS011;60383;46.626;18.866;2023-06-26T11:14:17;2.67;;;2.00;;
58071;SDS011;60383;46.626;18.866;2023-06-26T11:16:43;2.40;;;2.00;;
58071;SDS011;60383;46.626;18.866;2023-06-26T11:19:12;2.00;;;1.77;;
58071;SDS011;60383;46.626;18.866;2023-06-26T11:21:38;2.40;;;1.92;;
58071;SDS011;60383;46.626;18.866;2023-06-26T11:24:04;2.40;;;2.20;;
58071;SDS011;60383;46.626;18.866;2023-06-26T11:26:37;2.97;;;2.00;;
58071;SDS011;60383;46.626;18.866;2023-06-26T11:29:06;2.45;;;1.90;;
58071;SDS011;60383;46.626;18.866;2023-06-26T11:31:33;2.72;;;1.92;;
58071;SDS011;60383;46.626;18.866;2023-06-26T11:34:04;2.88;;;2.33;;
58071;SDS011;60383;46.626;18.866;2023-06-26T11:36:30;2.55;;;2.30;;
58071;SDS011;60383;46.626;18.866;2023-06-26T11:38:57;4.28;;;2.55;;
58071;SDS011;60383;46.626;18.866;2023-06-26T11:41:27;3.17;;;2.20;;
58071;SDS011;60383;46.626;18.866;2023-06-26T11:43:53;2.35;;;2.03;;
58071;SDS011;60383;46.626;18.866;2023-06-26T11:46:19;3.15;;;2.40;;
58071;SDS011;60383;46.626;18.866;2023-06-26T11:48:46;3.33;;;2.10;;
58071;SDS011;60383;46.626;18.866;2023-06-26T11:51:15;4.65;;;2.60;;
58071;SDS011;60383;46.626;18.866;2023-06-26T11:53:41;3.63;;;2.55;;
58071;SDS011;60383;46.626;18.866;2023-06-26T11:56:17;2.83;;;1.80;;
58071;SDS011;60383;46.626;18.866;2023-06-26T12:01:35;3.15;;;2.22;;
58071;SDS011;60383;46.626;18.866;2023-06-26T12:04:05;3.67;;;2.05;;
58071;SDS011;60383;46.626;18.866;2023-06-26T12:06:36;2.75;;;2.08;;
58071;SDS011;60383;46.626;18.866;2023-06-26T12:09:04;2.03;;;1.88;;
58071;SDS011;60383;46.626;18.866;2023-06-26T12:11:32;2.20;;;1.70;;
58071;SDS011;60383;46.626;18.866;2023-06-26T12:14:00;2.63;;;1.90;;
58071;SDS011;60383;46.626;18.866;2023-06-26T12:16:29;2.70;;;2.30;;
58071;SDS011;60383;46.626;18.866;2023-06-26T12:18:59;2.40;;;2.05;;
58071;SDS011;60383;46.626;18.866;2023-06-26T12:24:05;2.20;;;1.90;;
58071;SDS011;60383;46.626;18.866;2023-06-26T12:26:33;3.17;;;2.00;;
58071;SDS011;60383;46.626;18.866;2023-06-26T12:31:34;2.88;;;2.05;;
58071;SDS011;60383;46.626;18.866;2023-06-26T12:34:01;2.83;;;2.05;;
58071;SDS011;60383;46.626;18.866;2023-06-26T12:36:26;2.70;;;1.83;;
58071;SDS011;60383;46.626;18.866;2023-06-26T12:38:53;2.83;;;1.90;;
58071;SDS011;60383;46.626;18.866;2023-06-26T12:41:19;3.17;;;2.05;;
58071;SDS011;60383;46.626;18.866;2023-06-26T12:43:45;3.63;;;2.25;;
58071;SDS011;60383;46.626;18.866;2023-06-26T12:46:11;2.83;;;2.03;;
58071;SDS011;60383;46.626;18.866;2023-06-26T12:48:37;3.38;;;2.10;;
58071;SDS011;60383;46.626;18.866;2023-06-26T12:51:08;2.50;;;1.88;;
58071;SDS011;60383;46.626;18.866;2023-06-26T12:53:37;2.38;;;2.13;;
58071;SDS011;60383;46.626;18.866;2023-06-26T12:56:07;2.70;;;1.98;;
58071;SDS011;60383;46.626;18.866;2023-06-26T12:58:33;2.70;;;1.95;;
58071;SDS011;60383;46.626;18.866;2023-06-26T13:01:01;2.47;;;1.88;;
58071;SDS011;60383;46.626;18.866;2023-06-26T13:03:28;2.38;;;1.85;;
58071;SDS011;60383;46.626;18.866;2023-06-26T13:05:53;2.47;;;1.67;;
58071;SDS011;60383;46.626;18.866;2023-06-26T13:08:19;3.65;;;2.05;;
58071;SDS011;60383;46.626;18.866;2023-06-26T13:10:44;2.88;;;2.13;;
58071;SDS011;60383;46.626;18.866;2023-06-26T13:13:10;2.08;;;1.67;;
58071;SDS011;60383;46.626;18.866;2023-06-26T13:15:36;2.78;;;1.85;;
58071;SDS011;60383;46.626;18.866;2023-06-26T13:18:02;3.10;;;1.85;;
58071;SDS011;60383;46.626;18.866;2023-06-26T13:20:28;2.55;;;1.73;;
58071;SDS011;60383;46.626;18.866;2023-06-26T13:22:54;2.65;;;2.00;;
58071;SDS011;60383;46.626;18.866;2023-06-26T13:25:20;2.10;;;1.65;;
58071;SDS011;60383;46.626;18.866;2023-06-26T13:27:46;3.22;;;1.80;;
58071;SDS011;60383;46.626;18.866;2023-06-26T13:30:13;1.88;;;1.40;;
58071;SDS011;60383;46.626;18.866;2023-06-26T13:32:40;1.95;;;1.63;;
58071;SDS011;60383;46.626;18.866;2023-06-26T13:35:05;1.65;;;1.55;;
58071;SDS011;60383;46.626;18.866;2023-06-26T13:37:31;2.25;;;1.80;;
58071;SDS011;60383;46.626;18.866;2023-06-26T13:39:59;2.03;;;1.65;;
58071;SDS011;60383;46.626;18.866;2023-06-26T13:42:26;3.08;;;1.83;;
58071;SDS011;60383;46.626;18.866;2023-06-26T13:44:51;2.05;;;1.70;;
58071;SDS011;60383;46.626;18.866;2023-06-26T13:47:17;1.85;;;1.65;;
58071;SDS011;60383;46.626;18.866;2023-06-26T13:49:42;3.80;;;1.80;;
58071;SDS011;60383;46.626;18.866;2023-06-26T13:52:08;2.03;;;1.63;;
58071;SDS011;60383;46.626;18.866;2023-06-26T13:54:34;2.17;;;1.77;;
58071;SDS011;60383;46.626;18.866;2023-06-26T13:57:01;2.22;;;1.92;;
58071;SDS011;60383;46.626;18.866;2023-06-26T13:59:28;2.00;;;1.60;;
58071;SDS011;60383;46.626;18.866;2023-06-26T14:01:53;2.40;;;1.80;;
58071;SDS011;60383;46.626;18.866;2023-06-26T14:04:19;2.05;;;1.40;;
58071;SDS011;60383;46.626;18.866;2023-06-26T14:06:46;2.35;;;1.92;;
58071;SDS011;60383;46.626;18.866;2023-06-26T14:09:11;2.50;;;2.08;;
58071;SDS011;60383;46.626;18.866;2023-06-26T14:11:37;2.15;;;1.88;;
58071;SDS011;60383;46.626;18.866;2023-06-26T14:14:02;3.28;;;1.67;;
58071;SDS011;60383;46.626;18.866;2023-06-26T14:16:28;2.70;;;1.73;;
58071;SDS011;60383;46.626;18.866;2023-06-26T14:18:54;2.22;;;1.80;;
58071;SDS011;60383;46.626;18.866;2023-06-26T14:21:20;2.90;;;1.73;;
58071;SDS011;60383;46.626;18.866;2023-06-26T14:23:46;2.22;;;1.95;;
58071;SDS011;60383;46.626;18.866;2023-06-26T14:26:11;2.50;;;2.10;;
58071;SDS011;60383;46.626;18.866;2023-06-26T14:28:37;2.78;;;1.90;;
58071;SDS011;60383;46.626;18.866;2023-06-26T14:31:05;2.47;;;2.03;;
58071;SDS011;60383;46.626;18.866;2023-06-26T14:33:30;2.90;;;1.73;;
58071;SDS011;60383;46.626;18.866;2023-06-26T14:35:56;3.55;;;2.10;;
58071;SDS011;60383;46.626;18.866;2023-06-26T14:38:21;2.13;;;1.60;;
58071;SDS011;60383;46.626;18.866;2023-06-26T14:40:47;2.35;;;1.60;;
58071;SDS011;60383;46.626;18.866;2023-06-26T14:43:12;2.20;;;1.98;;
58071;SDS011;60383;46.626;18.866;2023-06-26T14:45:38;3.65;;;2.17;;
58071;SDS011;60383;46.626;18.866;2023-06-26T14:48:04;2.40;;;1.80;;
58071;SDS011;60383;46.626;18.866;2023-06-26T14:50:29;2.33;;;1.90;;
58071;SDS011;60383;46.626;18.866;2023-06-26T14:52:55;4.18;;;2.15;;
58071;SDS011;60383;46.626;18.866;2023-06-26T14:55:20;2.53;;;1.90;;
58071;SDS011;60383;46.626;18.866;2023-06-26T14:57:46;2.60;;;1.95;;
58071;SDS011;60383;46.626;18.866;2023-06-26T15:00:11;2.80;;;2.40;;
58071;SDS011;60383;46.626;18.866;2023-06-26T15:02:37;3.40;;;2.03;;
58071;SDS011;60383;46.626;18.866;2023-06-26T15:05:03;2.47;;;1.90;;